| time (UTC) | temp F | wind direction | speed knots | gust knots | rain 1hr in | rain 24hr in | rain mn in | humidity % | barometer mb |
| 20260503225504 | 70 | 255 | 3.5 | 6.1 | 0.00 | 0.00 | 0.00 | 34 | 1002.9 |
| 20260503225004 | 70 | 274 | 1.7 | 6.1 | 0.00 | 0.00 | 0.00 | 34 | 1003.0 |
| 20260503224504 | 70 | 272 | 2.6 | 7.8 | 0.00 | 0.00 | 0.00 | 34 | 1003.0 |
| 20260503224004 | 70 | 239 | 4.3 | 8.7 | 0.00 | 0.00 | 0.00 | 33 | 1003.1 |
| 20260503223505 | 70 | 254 | 2.6 | 10.4 | 0.00 | 0.00 | 0.00 | 32 | 1003.1 |
| 20260503223004 | 70 | 281 | 3.5 | 7.0 | 0.00 | 0.00 | 0.00 | 34 | 1003.1 |
| 20260503222004 | 70 | 248 | 3.5 | 10.4 | 0.00 | 0.00 | 0.00 | 35 | 1003.1 |
| 20260503221503 | 70 | 260 | 4.3 | 8.7 | 0.00 | 0.00 | 0.00 | 34 | 1003.2 |
| 20260503221003 | 70 | 286 | 3.5 | 6.1 | 0.00 | 0.00 | 0.00 | 35 | 1003.1 |
| 20260503220504 | 70 | 254 | 2.6 | 10.4 | 0.00 | 0.00 | 0.00 | 32 | 1003.1 |
| 20260503220004 | 70 | 253 | 6.1 | 12.2 | 0.00 | 0.00 | 0.00 | 34 | 1003.1 |
| 20260503215503 | 70 | 271 | 4.3 | 7.0 | 0.00 | 0.00 | 0.00 | 35 | 1003.2 |
| 20260503215003 | 70 | 256 | 5.2 | 10.4 | 0.00 | 0.00 | 0.00 | 36 | 1003.2 |
| 20260503214504 | 69 | 241 | 4.3 | 10.4 | 0.00 | 0.00 | 0.00 | 36 | 1003.2 |
| 20260503214004 | 69 | 261 | 6.1 | 12.2 | 0.00 | 0.00 | 0.00 | 37 | 1003.2 |
| 20260503213503 | 70 | 251 | 4.3 | 10.4 | 0.00 | 0.00 | 0.00 | 36 | 1003.3 |
| 20260503213003 | 70 | 250 | 5.2 | 11.3 | 0.00 | 0.00 | 0.00 | 36 | 1003.2 |
| 20260503212504 | 70 | 215 | 4.3 | 7.8 | 0.00 | 0.00 | 0.00 | 36 | 1003.3 |
| 20260503212004 | 70 | 247 | 2.6 | 6.1 | 0.00 | 0.00 | 0.00 | 36 | 1003.3 |
| 20260503211503 | 70 | 231 | 4.3 | 7.8 | 0.00 | 0.00 | 0.00 | 36 | 1003.4 |
| 20260503211003 | 70 | 233 | 6.1 | 10.4 | 0.00 | 0.00 | 0.00 | 36 | 1003.3 |
| 20260503210005 | 70 | 249 | 4.3 | 11.3 | 0.00 | 0.00 | 0.00 | 36 | 1003.6 |
| 20260503205504 | 69 | 244 | 6.1 | 10.4 | 0.00 | 0.00 | 0.00 | 37 | 1003.5 |
| 20260503205004 | 69 | 226 | 4.3 | 12.2 | 0.00 | 0.00 | 0.00 | 38 | 1003.6 |
| 20260503204503 | 69 | 222 | 5.2 | 8.7 | 0.00 | 0.00 | 0.00 | 37 | 1003.7 |
| 20260503204003 | 69 | 229 | 6.1 | 12.2 | 0.00 | 0.00 | 0.00 | 35 | 1003.8 |
| 20260503203504 | 69 | 261 | 4.3 | 12.2 | 0.00 | 0.00 | 0.00 | 38 | 1003.9 |
| 20260503203004 | 68 | 247 | 4.3 | 13.0 | 0.00 | 0.00 | 0.00 | 40 | 1003.9 |
| 20260503202504 | 69 | 224 | 5.2 | 11.3 | 0.00 | 0.00 | 0.00 | 37 | 1004.0 |
| 20260503202003 | 69 | 250 | 5.2 | 8.7 | 0.00 | 0.00 | 0.00 | 38 | 1004.0 |
| 20260503201503 | 68 | 249 | 4.3 | 10.4 | 0.00 | 0.00 | 0.00 | 37 | 1004.1 |
| 20260503201004 | 68 | 259 | 5.2 | 7.8 | 0.00 | 0.00 | 0.00 | 38 | 1004.3 |
| 20260503200504 | 68 | 229 | 6.1 | 11.3 | 0.00 | 0.00 | 0.00 | 37 | 1004.5 |
| 20260503195503 | 67 | 213 | 6.1 | 12.2 | 0.00 | 0.00 | 0.00 | 39 | 1004.5 |
| 20260503195004 | 67 | 210 | 5.2 | 10.4 | 0.00 | 0.00 | 0.00 | 38 | 1004.6 |
| 20260503194504 | 68 | 252 | 6.1 | 7.8 | 0.00 | 0.00 | 0.00 | 38 | 1004.7 |
| 20260503194004 | 68 | 245 | 5.2 | 11.3 | 0.00 | 0.00 | 0.00 | 40 | 1004.8 |
| 20260503193503 | 68 | 227 | 4.3 | 12.2 | 0.00 | 0.00 | 0.00 | 38 | 1004.9 |
| 20260503192504 | 67 | 260 | 4.3 | 10.4 | 0.00 | 0.00 | 0.00 | 38 | 1005.0 |
| 20260503192004 | 67 | 252 | 9.6 | 17.4 | 0.00 | 0.00 | 0.00 | 38 | 1005.1 |
| 20260503191503 | 67 | 255 | 4.3 | 11.3 | 0.00 | 0.00 | 0.00 | 40 | 1005.1 |
| 20260503191003 | 66 | 239 | 6.1 | 13.9 | 0.00 | 0.00 | 0.00 | 40 | 1005.1 |
| 20260503190503 | 66 | 214 | 7.0 | 12.2 | 0.00 | 0.00 | 0.00 | 37 | 1005.1 |
| 20260503190004 | 67 | 235 | 4.3 | 14.8 | 0.00 | 0.00 | 0.00 | 39 | 1005.2 |
| 20260503185503 | 66 | 238 | 7.0 | 14.8 | 0.00 | 0.00 | 0.00 | 40 | 1005.2 |
| 20260503185004 | 66 | 254 | 7.8 | 15.6 | 0.00 | 0.00 | 0.00 | 39 | 1005.4 |
| 20260503184503 | 66 | 237 | 6.1 | 13.9 | 0.00 | 0.00 | 0.00 | 39 | 1005.3 |
| 20260503184004 | 66 | 236 | 6.1 | 11.3 | 0.00 | 0.00 | 0.00 | 39 | 1005.3 |
| 20260503183504 | 66 | 219 | 7.0 | 14.8 | 0.00 | 0.00 | 0.00 | 39 | 1005.4 |
| 20260503183004 | 66 | 232 | 5.2 | 12.2 | 0.00 | 0.00 | 0.00 | 40 | 1005.3 |
| 20260503182505 | 66 | 252 | 7.8 | 15.6 | 0.00 | 0.00 | 0.00 | 39 | 1005.4 |
| 20260503182006 | 66 | 226 | 6.1 | 12.2 | 0.00 | 0.00 | 0.00 | 41 | 1005.5 |
| 20260503181005 | 65 | 232 | 6.1 | 13.9 | 0.00 | 0.00 | 0.00 | 41 | 1005.6 |
| 20260503180505 | 64 | 230 | 6.1 | 11.3 | 0.00 | 0.00 | 0.00 | 43 | 1005.6 |
| 20260503180004 | 64 | 232 | 7.8 | 19.1 | 0.00 | 0.00 | 0.00 | 46 | 1005.7 |
| 20260503175505 | 64 | 203 | 7.8 | 19.1 | 0.00 | 0.00 | 0.00 | 43 | 1005.8 |
| 20260503175005 | 64 | 227 | 5.2 | 12.2 | 0.00 | 0.00 | 0.00 | 45 | 1005.9 |
| 20260503174505 | 63 | 208 | 6.1 | 13.0 | 0.00 | 0.00 | 0.00 | 45 | 1005.9 |
| 20260503174004 | 63 | 234 | 6.1 | 13.0 | 0.00 | 0.00 | 0.00 | 44 | 1006.0 |
| 20260503173504 | 63 | 241 | 7.0 | 13.0 | 0.00 | 0.00 | 0.00 | 45 | 1006.0 |
| 20260503173005 | 63 | 207 | 6.1 | 11.3 | 0.00 | 0.00 | 0.00 | 44 | 1006.2 |
| 20260503172505 | 62 | 223 | 8.7 | 15.6 | 0.00 | 0.00 | 0.00 | 42 | 1006.3 |
| 20260503172004 | 62 | 247 | 8.7 | 20.9 | 0.00 | 0.00 | 0.00 | 44 | 1006.3 |
| 20260503171504 | 62 | 210 | 8.7 | 18.2 | 0.00 | 0.00 | 0.00 | 42 | 1006.4 |
| 20260503171005 | 63 | 215 | 7.8 | 15.6 | 0.00 | 0.00 | 0.00 | 42 | 1006.5 |
| 20260503170505 | 63 | 238 | 7.8 | 14.8 | 0.00 | 0.00 | 0.00 | 42 | 1006.5 |
| 20260503131004 | 52 | 232 | 5.2 | 10.4 | 0.00 | 0.00 | 0.00 | 64 | 1009.6 |
| 20260503130504 | 52 | 237 | 3.5 | 7.0 | 0.00 | 0.00 | 0.00 | 62 | 1009.7 |
| 20260503110505 | 49 | 239 | 1.7 | 2.6 | 0.00 | 0.00 | 0.00 | 56 | 1009.8 |
| 20260503090504 | 49 | 217 | 2.6 | 5.2 | 0.00 | 0.00 | 0.00 | 54 | 1010.9 |
| 20260503081505 | 48 | 231 | 2.6 | 5.2 | 0.00 | 0.00 | 0.00 | 54 | 1011.1 |
| 20260503080504 | 48 | 211 | 4.3 | 6.1 | 0.00 | 0.00 | 0.00 | 53 | 1011.0 |
| 20260503072504 | 48 | 233 | 3.5 | 7.0 | 0.00 | 0.00 | 0.00 | 52 | 1011.3 |
| 20260503072004 | 48 | 211 | 2.6 | 7.0 | 0.00 | 0.00 | 0.00 | 52 | 1011.3 |
| 20260503071504 | 48 | 218 | 4.3 | 7.0 | 0.00 | 0.00 | 0.00 | 51 | 1011.3 |
| 20260503071004 | 48 | 220 | 2.6 | 5.2 | 0.00 | 0.00 | 0.00 | 52 | 1011.4 |
| 20260503055004 | 49 | 222 | 3.5 | 7.0 | 0.00 | 0.00 | 0.00 | 48 | 1012.0 |
| 20260503054503 | 49 | 217 | 2.6 | 6.1 | 0.00 | 0.00 | 0.00 | 48 | 1012.0 |
| 20260503054004 | 49 | 226 | 2.6 | 6.1 | 0.00 | 0.00 | 0.00 | 48 | 1012.1 |
| 20260503053004 | 49 | 227 | 3.5 | 7.0 | 0.00 | 0.00 | 0.00 | 48 | 1012.1 |
| 20260503052504 | 49 | 228 | 1.7 | 4.3 | 0.00 | 0.00 | 0.00 | 49 | 1012.2 |
| 20260503052005 | 49 | 228 | 2.6 | 5.2 | 0.00 | 0.00 | 0.00 | 48 | 1012.2 |
| 20260503051005 | 49 | 221 | 2.6 | 6.1 | 0.00 | 0.00 | 0.00 | 49 | 1012.3 |
| 20260503050504 | 49 | 214 | 2.6 | 5.2 | 0.00 | 0.00 | 0.00 | 48 | 1012.4 |
| 20260503050005 | 49 | 209 | 4.3 | 5.2 | 0.00 | 0.00 | 0.00 | 48 | 1012.4 |
| 20260503045504 | 50 | 214 | 2.6 | 6.1 | 0.00 | 0.00 | 0.00 | 48 | 1012.4 |
| 20260503045004 | 50 | 221 | 2.6 | 5.2 | 0.00 | 0.00 | 0.00 | 48 | 1012.4 |
| 20260503044505 | 50 | 226 | 3.5 | 6.1 | 0.00 | 0.00 | 0.00 | 48 | 1012.5 |
| 20260503044003 | 50 | 217 | 3.5 | 6.1 | 0.00 | 0.00 | 0.00 | 48 | 1012.5 |
| 20260503043004 | 50 | 224 | 2.6 | 4.3 | 0.00 | 0.00 | 0.00 | 48 | 1012.6 |
| 20260503042504 | 50 | 223 | 2.6 | 5.2 | 0.00 | 0.00 | 0.00 | 48 | 1012.6 |
| 20260503042004 | 50 | 214 | 2.6 | 5.2 | 0.00 | 0.00 | 0.00 | 48 | 1012.6 |
| 20260503040004 | 50 | 222 | 2.6 | 4.3 | 0.00 | 0.00 | 0.00 | 48 | 1012.8 |
| 20260503035503 | 50 | 227 | 1.7 | 2.6 | 0.00 | 0.00 | 0.00 | 48 | 1012.8 |
| 20260503035004 | 50 | 225 | 1.7 | 4.3 | 0.00 | 0.00 | 0.00 | 48 | 1012.8 |
| 20260503034004 | 50 | 238 | 1.7 | 2.6 | 0.00 | 0.00 | 0.00 | 48 | 1012.9 |
| 20260503033503 | 50 | 229 | 1.7 | 4.3 | 0.00 | 0.00 | 0.00 | 47 | 1012.9 |
| 20260503032504 | 50 | 212 | 1.7 | 5.2 | 0.00 | 0.00 | 0.00 | 47 | 1013.1 |
| 20260503032004 | 50 | 227 | 1.7 | 2.6 | 0.00 | 0.00 | 0.00 | 47 | 1013.1 |
| 20260503031504 | 50 | 230 | 2.6 | 5.2 | 0.00 | 0.00 | 0.00 | 47 | 1013.1 |
| 20260503031003 | 50 | 238 | 1.7 | 5.2 | 0.00 | 0.00 | 0.00 | 47 | 1013.1 |
| 20260503030504 | 50 | 239 | 1.7 | 4.3 | 0.00 | 0.00 | 0.00 | 47 | 1013.1 |
| 20260503025504 | 50 | 226 | 1.7 | 2.6 | 0.00 | 0.00 | 0.00 | 48 | 1013.2 |
| 20260503025003 | 49 | 241 | 1.7 | 4.3 | 0.00 | 0.00 | 0.00 | 49 | 1013.3 |
| 20260503024503 | 49 | 222 | 1.7 | 4.3 | 0.00 | 0.00 | 0.00 | 50 | 1013.3 |
| 20260503024004 | 48 | 209 | 1.7 | 4.3 | 0.00 | 0.00 | 0.00 | 52 | 1013.2 |
| 20260503023504 | 48 | 201 | 1.7 | 1.7 | 0.00 | 0.00 | 0.00 | 55 | 1013.3 |
| 20260503023004 | 48 | 203 | 0.9 | 1.7 | 0.00 | 0.00 | 0.00 | 55 | 1013.3 |
| 20260503022504 | 48 | 211 | 0.9 | 1.7 | 0.00 | 0.00 | 0.00 | 54 | 1013.3 |
| 20260503021504 | 47 | 230 | 1.7 | 4.3 | 0.00 | 0.00 | 0.00 | 55 | 1013.2 |
| 20260503021004 | 47 | 257 | 0.0 | 0.0 | 0.00 | 0.00 | 0.00 | 55 | 1013.2 |
| 20260503020004 | 48 | 257 | 0.0 | 0.0 | 0.00 | 0.00 | 0.00 | 53 | 1013.2 |
| 20260503015004 | 49 | 257 | 0.0 | 0.0 | 0.00 | 0.00 | 0.00 | 51 | 1013.1 |
| 20260503014504 | 49 | 257 | 0.0 | 0.0 | 0.00 | 0.00 | 0.00 | 50 | 1013.0 |
| 20260503013504 | 50 | 257 | 0.0 | 0.0 | 0.00 | 0.00 | 0.00 | 47 | 1013.0 |
| 20260503013004 | 51 | 257 | 0.0 | 0.0 | 0.00 | 0.00 | 0.00 | 47 | 1013.0 |
| 20260503012504 | 51 | 257 | 0.0 | 0.9 | 0.00 | 0.00 | 0.00 | 46 | 1012.9 |
| 20260503012004 | 52 | 206 | 0.0 | 0.0 | 0.00 | 0.00 | 0.00 | 45 | 1013.0 |
| 20260503011004 | 53 | 206 | 0.9 | 1.7 | 0.00 | 0.00 | 0.00 | 42 | 1012.9 |
| 20260503010504 | 54 | 248 | 0.0 | 1.7 | 0.00 | 0.00 | 0.00 | 43 | 1012.9 |
| 20260503010004 | 54 | 240 | 0.0 | 0.0 | 0.00 | 0.00 | 0.00 | 41 | 1012.9 |
| 20260503005503 | 54 | 240 | 0.0 | 1.7 | 0.00 | 0.00 | 0.00 | 40 | 1012.9 |
| 20260503005004 | 55 | 252 | 1.7 | 2.6 | 0.00 | 0.00 | 0.00 | 40 | 1012.9 |
| 20260503004504 | 56 | 260 | 1.7 | 4.3 | 0.00 | 0.00 | 0.00 | 40 | 1012.9 |
| 20260503004004 | 56 | 236 | 0.9 | 4.3 | 0.00 | 0.00 | 0.00 | 38 | 1012.9 |
| 20260503003503 | 56 | 263 | 1.7 | 4.3 | 0.00 | 0.00 | 0.00 | 37 | 1012.9 |
| 20260503003004 | 57 | 256 | 1.7 | 6.1 | 0.00 | 0.00 | 0.00 | 36 | 1012.9 |
| 20260503002504 | 57 | 233 | 1.7 | 4.3 | 0.00 | 0.00 | 0.00 | 35 | 1012.9 |
| 20260503002004 | 57 | 251 | 1.7 | 6.1 | 0.00 | 0.00 | 0.00 | 35 | 1013.0 |
| 20260503001504 | 57 | 242 | 3.5 | 6.1 | 0.00 | 0.00 | 0.00 | 35 | 1013.0 |
| 20260503001004 | 58 | 262 | 3.5 | 7.0 | 0.00 | 0.00 | 0.00 | 34 | 1013.0 |
| 20260503000503 | 58 | 272 | 2.6 | 7.0 | 0.00 | 0.00 | 0.00 | 34 | 1013.1 |
| 20260502235504 | 58 | 267 | 2.6 | 6.1 | 0.00 | 0.00 | 0.00 | 34 | 1013.2 |
| 20260502235004 | 58 | 253 | 3.5 | 6.1 | 0.00 | 0.00 | 0.00 | 32 | 1013.3 |
| 20260502234003 | 58 | 251 | 2.6 | 6.1 | 0.00 | 0.00 | 0.00 | 32 | 1013.5 |
| 20260502233004 | 58 | 221 | 2.6 | 7.8 | 0.00 | 0.00 | 0.00 | 33 | 1013.5 |
| 20260502232504 | 58 | 279 | 3.5 | 6.1 | 0.00 | 0.00 | 0.00 | 34 | 1013.5 |
| 20260502232004 | 58 | 277 | 3.5 | 6.1 | 0.00 | 0.00 | 0.00 | 32 | 1013.4 |
| 20260502231503 | 59 | 254 | 3.5 | 7.0 | 0.00 | 0.00 | 0.00 | 31 | 1013.5 |
| 20260502231004 | 59 | 267 | 3.5 | 7.0 | 0.00 | 0.00 | 0.00 | 33 | 1013.6 |
| 20260502230504 | 59 | 261 | 2.6 | 7.8 | 0.00 | 0.00 | 0.00 | 33 | 1013.6 |